Time,TemperatureF,DewpointF,PressureIn,WindDirection,WindDirectionDegrees,WindSpeedMPH,WindSpeedGustMPH,Humidity,HourlyPrecipIn,Conditions,Clouds,dailyrainin,SoftwareType,DateUTC
2013-09-20 00:00:00,64.1,41.1,29.78,SSE,158,0.0,0.0,43,0.00,,,0.00,WUHU216HW,2013-09-20 07:00:00,
2013-09-20 00:05:00,64.1,41.1,29.78,SSE,158,0.0,0.0,43,0.00,,,0.00,WUHU216HW,2013-09-20 07:05:00,
2013-09-20 00:10:00,64.1,41.1,29.78,SSE,158,0.0,0.0,43,0.00,,,0.00,WUHU216HW,2013-09-20 07:10:00,
2013-09-20 00:30:00,62.8,41.1,29.77,SSE,158,0.0,0.0,45,0.00,,,0.00,WUHU216HW,2013-09-20 07:30:00,
2013-09-20 00:35:00,62.8,41.1,29.77,SSE,158,0.0,0.0,45,0.00,,,0.00,WUHU216HW,2013-09-20 07:35:00,
2013-09-20 00:40:00,62.8,41.1,29.77,SSE,158,0.0,0.0,45,0.00,,,0.00,WUHU216HW,2013-09-20 07:40:00,
2013-09-20 01:00:00,62.3,40.5,29.77,SSE,158,0.0,0.0,45,0.00,,,0.00,WUHU216HW,2013-09-20 08:00:00,
2013-09-20 01:05:00,62.3,40.5,29.77,SSE,158,0.0,0.0,45,0.00,,,0.00,WUHU216HW,2013-09-20 08:05:00,
2013-09-20 01:10:00,62.3,40.5,29.77,SSE,158,0.0,0.0,45,0.00,,,0.00,WUHU216HW,2013-09-20 08:10:00,
2013-09-20 01:30:00,60.8,41.6,29.77,WNW,293,1.1,1.1,49,0.00,,,0.00,WUHU216HW,2013-09-20 08:30:00,
2013-09-20 01:35:00,60.7,41.4,29.77,NW,315,1.6,1.6,49,0.00,,,0.00,WUHU216HW,2013-09-20 08:35:00,
2013-09-20 01:40:00,60.7,41.4,29.77,NW,315,1.6,1.6,49,0.00,,,0.00,WUHU216HW,2013-09-20 08:40:00,
2013-09-20 02:00:00,60.8,43.6,29.77,SW,225,0.0,0.0,53,0.00,,,0.00,WUHU216HW,2013-09-20 09:00:00,
2013-09-20 02:05:00,60.8,43.1,29.77,SW,225,0.0,0.0,52,0.00,,,0.00,WUHU216HW,2013-09-20 09:05:00,
2013-09-20 02:10:00,60.8,43.1,29.77,SW,225,0.0,0.0,52,0.00,,,0.00,WUHU216HW,2013-09-20 09:10:00,
2013-09-20 02:30:00,60.3,42.6,29.76,SW,225,0.0,0.0,52,0.00,,,0.00,WUHU216HW,2013-09-20 09:30:00,
2013-09-20 02:35:00,60.1,42.4,29.76,SW,225,0.0,0.0,52,0.00,,,0.00,WUHU216HW,2013-09-20 09:35:00,
2013-09-20 02:40:00,60.1,42.4,29.76,SW,225,0.0,0.0,52,0.00,,,0.00,WUHU216HW,2013-09-20 09:40:00,
2013-09-20 03:00:00,59.2,43.0,29.76,SW,225,0.0,0.0,55,0.00,,,0.00,WUHU216HW,2013-09-20 10:00:00,
2013-09-20 03:05:00,59.0,42.8,29.76,SW,225,0.0,0.0,55,0.00,,,0.00,WUHU216HW,2013-09-20 10:05:00,
2013-09-20 03:10:00,59.0,42.8,29.76,SW,225,0.0,0.0,55,0.00,,,0.00,WUHU216HW,2013-09-20 10:10:00,
2013-09-20 03:30:00,58.3,41.8,29.76,SW,225,0.0,0.0,54,0.00,,,0.00,WUHU216HW,2013-09-20 10:30:00,
2013-09-20 03:35:00,58.3,42.2,29.76,SW,225,0.0,0.0,55,0.00,,,0.00,WUHU216HW,2013-09-20 10:35:00,
2013-09-20 03:40:00,58.3,42.2,29.76,SW,225,0.0,0.0,55,0.00,,,0.00,WUHU216HW,2013-09-20 10:40:00,
2013-09-20 04:00:00,57.2,42.7,29.76,West,270,0.4,0.4,58,0.00,,,0.00,WUHU216HW,2013-09-20 11:00:00,
2013-09-20 04:05:00,57.2,42.1,29.76,West,270,0.4,0.4,57,0.00,,,0.00,WUHU216HW,2013-09-20 11:05:00,
2013-09-20 04:10:00,57.2,42.1,29.76,West,270,0.4,0.4,57,0.00,,,0.00,WUHU216HW,2013-09-20 11:10:00,
2013-09-20 04:30:00,56.9,42.8,29.76,West,270,0.0,0.0,59,0.00,,,0.00,WUHU216HW,2013-09-20 11:30:00,
2013-09-20 04:35:00,56.9,42.8,29.76,West,270,0.0,0.0,59,0.00,,,0.00,WUHU216HW,2013-09-20 11:35:00,
2013-09-20 04:40:00,56.9,42.8,29.76,West,270,0.0,0.0,59,0.00,,,0.00,WUHU216HW,2013-09-20 11:40:00,
2013-09-20 05:00:00,56.3,43.0,29.76,West,270,0.0,0.0,61,0.00,,,0.00,WUHU216HW,2013-09-20 12:00:00,
2013-09-20 05:05:00,56.3,43.0,29.76,West,270,0.0,0.0,61,0.00,,,0.00,WUHU216HW,2013-09-20 12:05:00,
2013-09-20 05:10:00,56.3,43.0,29.76,West,270,0.0,0.0,61,0.00,,,0.00,WUHU216HW,2013-09-20 12:10:00,
2013-09-20 05:30:00,55.8,43.4,29.77,West,270,0.0,0.0,63,0.00,,,0.00,WUHU216HW,2013-09-20 12:30:00,
2013-09-20 05:35:00,55.8,43.4,29.77,West,270,0.0,0.0,63,0.00,,,0.00,WUHU216HW,2013-09-20 12:35:00,
2013-09-20 05:40:00,55.8,43.4,29.77,West,270,0.0,0.0,63,0.00,,,0.00,WUHU216HW,2013-09-20 12:40:00,
2013-09-20 06:00:00,54.9,43.8,29.78,WSW,248,0.0,0.0,66,0.00,,,0.00,WUHU216HW,2013-09-20 13:00:00,
2013-09-20 06:05:00,54.9,43.8,29.78,WSW,248,0.0,0.0,66,0.00,,,0.00,WUHU216HW,2013-09-20 13:05:00,
2013-09-20 06:10:00,54.9,43.8,29.78,WSW,248,0.0,0.0,66,0.00,,,0.00,WUHU216HW,2013-09-20 13:10:00,
2013-09-20 06:30:00,54.5,44.6,29.78,WSW,248,0.0,0.0,69,0.00,,,0.00,WUHU216HW,2013-09-20 13:30:00,
2013-09-20 06:35:00,54.5,44.6,29.78,WSW,248,0.0,0.0,69,0.00,,,0.00,WUHU216HW,2013-09-20 13:35:00,
2013-09-20 06:40:00,54.5,44.6,29.78,WSW,248,0.0,0.0,69,0.00,,,0.00,WUHU216HW,2013-09-20 13:40:00,
2013-09-20 07:00:00,54.2,44.3,29.79,WSW,248,0.0,0.0,69,0.00,,,0.00,WUHU216HW,2013-09-20 14:00:00,
2013-09-20 07:05:00,54.0,44.1,29.79,WSW,248,0.0,0.0,69,0.00,,,0.00,WUHU216HW,2013-09-20 14:05:00,
2013-09-20 07:10:00,54.0,44.1,29.79,WSW,248,0.0,0.0,69,0.00,,,0.00,WUHU216HW,2013-09-20 14:10:00,
2013-09-20 07:30:00,54.0,45.6,29.79,WSW,248,0.0,0.0,73,0.00,,,0.00,WUHU216HW,2013-09-20 14:30:00,
2013-09-20 07:35:00,53.8,45.4,29.79,WSW,248,0.0,0.0,73,0.00,,,0.00,WUHU216HW,2013-09-20 14:35:00,
2013-09-20 07:40:00,53.8,45.4,29.79,WSW,248,0.0,0.0,73,0.00,,,0.00,WUHU216HW,2013-09-20 14:40:00,
2013-09-20 08:00:00,55.8,47.3,29.79,WSW,248,0.0,0.0,73,0.00,,,0.00,WUHU216HW,2013-09-20 15:00:00,
2013-09-20 08:05:00,55.8,47.3,29.79,WSW,248,0.0,0.0,73,0.00,,,0.00,WUHU216HW,2013-09-20 15:05:00,
2013-09-20 08:10:00,55.8,47.3,29.79,WSW,248,0.0,0.0,73,0.00,,,0.00,WUHU216HW,2013-09-20 15:10:00,
2013-09-20 08:30:00,58.1,49.9,29.80,North,0,0.0,0.0,74,0.00,,,0.00,WUHU216HW,2013-09-20 15:30:00,
2013-09-20 08:35:00,58.3,50.0,29.80,North,0,0.2,0.2,74,0.00,,,0.00,WUHU216HW,2013-09-20 15:35:00,
2013-09-20 08:40:00,58.3,50.0,29.80,North,0,0.2,0.2,74,0.00,,,0.00,WUHU216HW,2013-09-20 15:40:00,
2013-09-20 09:00:00,61.0,52.4,29.81,NE,45,1.6,1.6,73,0.00,,,0.00,WUHU216HW,2013-09-20 16:00:00,
2013-09-20 09:05:00,61.0,52.4,29.81,WNW,293,1.6,1.6,73,0.00,,,0.00,WUHU216HW,2013-09-20 16:05:00,
2013-09-20 09:10:00,61.0,52.4,29.81,WNW,293,1.6,1.6,73,0.00,,,0.00,WUHU216HW,2013-09-20 16:10:00,
2013-09-20 09:30:00,62.8,53.6,29.82,NNE,23,0.9,0.9,72,0.00,,,0.00,WUHU216HW,2013-09-20 16:30:00,
2013-09-20 09:35:00,62.8,53.6,29.82,NNE,23,0.9,0.9,72,0.00,,,0.00,WUHU216HW,2013-09-20 16:35:00,
2013-09-20 09:40:00,62.8,53.6,29.82,NNE,23,0.9,0.9,72,0.00,,,0.00,WUHU216HW,2013-09-20 16:40:00,
2013-09-20 10:00:00,63.9,55.4,29.82,North,0,1.8,1.8,74,0.00,,,0.00,WUHU216HW,2013-09-20 17:00:00,
2013-09-20 10:05:00,63.9,55.4,29.82,North,0,1.8,1.8,74,0.00,,,0.00,WUHU216HW,2013-09-20 17:05:00,
2013-09-20 10:30:00,64.3,56.2,29.84,NNW,338,2.2,2.2,75,0.00,,,0.00,WUHU216HW,2013-09-20 17:30:00,
2013-09-20 10:35:00,64.3,56.2,29.84,NNW,338,2.2,2.2,75,0.00,,,0.00,WUHU216HW,2013-09-20 17:35:00,
2013-09-20 11:00:00,63.9,56.2,29.84,South,180,3.6,3.6,76,0.00,,,0.00,WUHU216HW,2013-09-20 18:00:00,
2013-09-20 11:05:00,63.9,56.2,29.84,South,180,3.6,3.6,76,0.00,,,0.00,WUHU216HW,2013-09-20 18:05:00,
2013-09-20 11:30:00,65.2,57.1,29.84,West,270,2.5,2.5,75,0.00,,,0.00,WUHU216HW,2013-09-20 18:30:00,
2013-09-20 11:32:00,65.2,56.7,29.84,North,0,2.5,2.5,74,0.00,,,0.00,WUHU216HW,2013-09-20 18:32:00,
2013-09-20 11:35:00,65.2,56.7,29.84,North,0,2.5,2.5,74,0.00,,,0.00,WUHU216HW,2013-09-20 18:35:00,
2013-09-20 11:40:00,65.2,56.7,29.84,North,0,2.5,2.5,74,0.00,,,0.00,WUHU216HW,2013-09-20 18:40:00,
2013-09-20 12:00:00,67.3,58.0,29.84,NNW,338,1.1,1.1,72,0.00,,,0.00,WUHU216HW,2013-09-20 19:00:00,
2013-09-20 12:05:00,67.3,58.0,29.84,South,180,2.2,2.2,72,0.00,,,0.00,WUHU216HW,2013-09-20 19:05:00,
2013-09-20 12:30:00,69.1,58.5,29.84,SW,225,3.4,3.4,69,0.00,,,0.00,WUHU216HW,2013-09-20 19:30:00,
2013-09-20 12:35:00,69.1,58.5,29.84,SW,225,3.4,3.4,69,0.00,,,0.00,WUHU216HW,2013-09-20 19:35:00,
2013-09-20 12:40:00,69.1,58.5,29.84,SW,225,3.4,3.4,69,0.00,,,0.00,WUHU216HW,2013-09-20 19:40:00,
2013-09-20 13:00:00,71.6,59.7,29.84,North,0,5.8,5.8,66,0.00,,,0.00,WUHU216HW,2013-09-20 20:00:00,
2013-09-20 13:05:00,71.6,59.7,29.84,North,0,5.8,5.8,66,0.00,,,0.00,WUHU216HW,2013-09-20 20:05:00,
2013-09-20 13:30:00,72.4,59.5,29.84,WSW,248,3.1,3.1,64,0.00,,,0.00,WUHU216HW,2013-09-20 20:30:00,
2013-09-20 13:35:00,72.4,59.5,29.84,WSW,248,3.1,3.1,64,0.00,,,0.00,WUHU216HW,2013-09-20 20:35:00,
2013-09-20 14:00:00,74.7,59.0,29.82,WNW,293,2.9,2.9,58,0.00,,,0.00,WUHU216HW,2013-09-20 21:00:00,
2013-09-20 14:05:00,74.7,59.0,29.82,WNW,293,2.9,2.9,58,0.00,,,0.00,WUHU216HW,2013-09-20 21:05:00,
2013-09-20 14:30:00,75.2,59.0,29.82,NNE,23,4.3,4.3,57,0.00,,,0.00,WUHU216HW,2013-09-20 21:30:00,
2013-09-20 14:35:00,75.2,59.0,29.82,NNE,23,4.3,4.3,57,0.00,,,0.00,WUHU216HW,2013-09-20 21:35:00,
2013-09-20 15:00:00,74.7,58.4,29.82,NW,315,2.5,2.5,57,0.00,,,0.00,WUHU216HW,2013-09-20 22:00:00,
2013-09-20 15:05:00,74.3,58.1,29.82,NW,315,2.9,4.9,57,0.00,,,0.00,WUHU216HW,2013-09-20 22:05:00,
2013-09-20 15:10:00,74.3,58.1,29.82,NW,315,2.9,4.9,57,0.00,,,0.00,WUHU216HW,2013-09-20 22:10:00,
2013-09-20 15:32:00,73.8,59.0,29.82,South,180,3.4,3.4,60,0.00,,,0.00,WUHU216HW,2013-09-20 22:32:00,
2013-09-20 15:37:00,73.8,59.0,29.82,SSE,158,2.2,3.4,60,0.00,,,0.00,WUHU216HW,2013-09-20 22:37:00,
2013-09-20 15:42:00,73.8,59.0,29.82,SSE,158,2.2,3.4,60,0.00,,,0.00,WUHU216HW,2013-09-20 22:42:00,
2013-09-20 16:00:00,71.6,58.3,29.83,West,270,2.2,2.2,63,0.00,,,0.00,WUHU216HW,2013-09-20 23:00:00,
2013-09-20 16:05:00,71.6,58.3,29.83,NNW,338,2.5,2.5,63,0.00,,,0.00,WUHU216HW,2013-09-20 23:05:00,
2013-09-20 16:10:00,71.6,58.3,29.83,NNW,338,2.5,2.5,63,0.00,,,0.00,WUHU216HW,2013-09-20 23:10:00,
2013-09-20 16:30:00,70.6,58.2,29.81,North,0,3.4,3.4,65,0.00,,,0.00,WUHU216HW,2013-09-20 23:30:00,
2013-09-20 16:35:00,70.6,58.2,29.81,SW,225,1.3,3.4,65,0.00,,,0.00,WUHU216HW,2013-09-20 23:35:00,
2013-09-20 16:40:00,70.6,58.2,29.81,SW,225,1.3,3.4,65,0.00,,,0.00,WUHU216HW,2013-09-20 23:40:00,
2013-09-20 17:00:00,70.6,58.6,29.81,West,270,3.1,3.1,66,0.00,,,0.00,WUHU216HW,2013-09-21 00:00:00,
2013-09-20 17:05:00,70.6,58.6,29.81,South,180,2.0,3.1,66,0.00,,,0.00,WUHU216HW,2013-09-21 00:05:00,
2013-09-20 17:10:00,70.6,58.6,29.81,South,180,2.0,2.0,66,0.00,,,0.00,WUHU216HW,2013-09-21 00:10:00,
2013-09-20 17:30:00,70.0,58.2,29.81,ENE,68,2.2,2.2,66,0.00,,,0.00,WUHU216HW,2013-09-21 00:30:00,
2013-09-20 17:35:00,69.8,58.0,29.81,NNE,23,3.4,3.4,66,0.00,,,0.00,WUHU216HW,2013-09-21 00:35:00,
2013-09-20 17:40:00,69.8,58.0,29.81,NNE,23,3.4,3.4,66,0.00,,,0.00,WUHU216HW,2013-09-21 00:40:00,
2013-09-20 18:00:00,69.8,58.0,29.81,NNE,23,0.9,0.9,66,0.00,,,0.00,WUHU216HW,2013-09-21 01:00:00,
2013-09-20 18:05:00,69.8,58.0,29.81,NNE,23,0.9,0.9,66,0.00,,,0.00,WUHU216HW,2013-09-21 01:05:00,
2013-09-20 18:30:00,68.8,57.8,29.81,NW,315,2.0,2.0,68,0.00,,,0.00,WUHU216HW,2013-09-21 01:30:00,
2013-09-20 18:35:00,68.8,57.8,29.81,NW,315,2.0,2.0,68,0.00,,,0.00,WUHU216HW,2013-09-21 01:35:00,
2013-09-20 19:00:00,67.7,57.2,29.81,SW,225,0.9,0.9,69,0.00,,,0.00,WUHU216HW,2013-09-21 02:00:00,
2013-09-20 19:05:00,67.7,57.2,29.81,South,180,1.8,1.8,69,0.00,,,0.00,WUHU216HW,2013-09-21 02:05:00,
2013-09-20 19:10:00,67.7,57.2,29.81,South,180,1.8,1.8,69,0.00,,,0.00,WUHU216HW,2013-09-21 02:10:00,
2013-09-20 19:30:00,67.3,57.2,29.82,NW,315,1.1,1.1,70,0.00,,,0.00,WUHU216HW,2013-09-21 02:30:00,
2013-09-20 19:35:00,67.3,57.2,29.82,NW,315,1.6,1.6,70,0.00,,,0.00,WUHU216HW,2013-09-21 02:35:00,
2013-09-20 19:40:00,67.3,57.2,29.82,NW,315,1.6,1.6,70,0.00,,,0.00,WUHU216HW,2013-09-21 02:40:00,
2013-09-20 20:00:00,67.0,57.2,29.83,WNW,293,1.8,1.8,71,0.00,,,0.00,WUHU216HW,2013-09-21 03:00:00,
2013-09-20 20:05:00,67.0,57.2,29.83,North,0,0.4,1.8,71,0.00,,,0.00,WUHU216HW,2013-09-21 03:05:00,
2013-09-20 20:10:00,67.0,57.2,29.83,North,0,0.4,0.4,71,0.00,,,0.00,WUHU216HW,2013-09-21 03:10:00,
2013-09-20 20:30:00,66.6,56.9,29.84,NNE,23,0.4,0.4,71,0.00,,,0.00,WUHU216HW,2013-09-21 03:30:00,
2013-09-20 20:35:00,66.6,56.9,29.84,NNE,23,0.4,0.4,71,0.00,,,0.00,WUHU216HW,2013-09-21 03:35:00,
2013-09-20 21:00:00,66.2,56.9,29.84,WNW,293,1.3,1.3,72,0.00,,,0.00,WUHU216HW,2013-09-21 04:00:00,
2013-09-20 21:01:00,66.2,56.9,29.84,NW,315,2.5,2.5,72,0.00,,,0.00,WUHU216HW,2013-09-21 04:01:00,
2013-09-20 21:06:00,66.2,56.9,29.84,NNW,338,2.2,2.5,72,0.00,,,0.00,WUHU216HW,2013-09-21 04:06:00,
2013-09-20 21:31:00,65.7,56.4,29.83,West,270,1.1,1.1,72,0.00,,,0.00,WUHU216HW,2013-09-21 04:31:00,
2013-09-20 21:36:00,65.7,56.4,29.83,West,270,1.1,1.1,72,0.00,,,0.00,WUHU216HW,2013-09-21 04:36:00,
2013-09-20 22:00:00,65.2,55.9,29.84,ENE,68,0.0,0.0,72,0.00,,,0.00,WUHU216HW,2013-09-21 05:00:00,
2013-09-20 22:05:00,65.2,55.9,29.84,ENE,68,0.0,0.0,72,0.00,,,0.00,WUHU216HW,2013-09-21 05:05:00,
2013-09-20 22:10:00,65.2,55.9,29.84,ENE,68,0.0,0.0,72,0.00,,,0.00,WUHU216HW,2013-09-21 05:10:00,
2013-09-20 22:30:00,65.2,56.3,29.84,NNW,338,0.0,0.0,73,0.00,,,0.00,WUHU216HW,2013-09-21 05:30:00,
2013-09-20 22:35:00,65.2,56.3,29.84,NNW,338,0.0,0.0,73,0.00,,,0.00,WUHU216HW,2013-09-21 05:35:00,
2013-09-20 23:00:00,64.8,56.4,29.84,NW,315,0.2,0.2,74,0.00,,,0.00,WUHU216HW,2013-09-21 06:00:00,
2013-09-20 23:01:00,65.0,56.5,29.84,WNW,293,0.0,0.0,74,0.00,,,0.00,WUHU216HW,2013-09-21 06:01:00,
2013-09-20 23:05:00,65.0,56.5,29.84,WNW,293,0.0,0.2,74,0.00,,,0.00,WUHU216HW,2013-09-21 06:05:00,
2013-09-20 23:10:00,65.0,56.5,29.84,WNW,293,0.0,0.0,74,0.00,,,0.00,WUHU216HW,2013-09-21 06:10:00,
2013-09-20 23:31:00,64.8,56.7,29.83,WSW,248,0.4,0.4,75,0.00,,,0.00,WUHU216HW,2013-09-21 06:31:00,
2013-09-20 23:36:00,64.8,56.7,29.83,WSW,248,0.4,0.4,75,0.00,,,0.00,WUHU216HW,2013-09-21 06:36:00,
2013-09-20 23:41:00,64.8,56.7,29.83,WSW,248,0.4,0.4,75,0.00,,,0.00,WUHU216HW,2013-09-21 06:41:00,